sensor_id;sensor_type;location;lat;lon;timestamp;P1;durP1;ratioP1;P2;durP2;ratioP2
50291;SDS011;36190;54.980;73.388;2023-04-25T00:02:02;8.32;;;3.05;;
50291;SDS011;36190;54.980;73.388;2023-04-25T00:04:29;6.70;;;2.80;;
50291;SDS011;36190;54.980;73.388;2023-04-25T00:06:58;6.78;;;2.63;;
50291;SDS011;36190;54.980;73.388;2023-04-25T00:09:26;7.53;;;2.90;;
50291;SDS011;36190;54.980;73.388;2023-04-25T00:11:55;9.65;;;3.03;;
50291;SDS011;36190;54.980;73.388;2023-04-25T00:14:23;5.93;;;2.90;;
50291;SDS011;36190;54.980;73.388;2023-04-25T00:16:51;10.90;;;2.92;;
50291;SDS011;36190;54.980;73.388;2023-04-25T00:19:19;8.45;;;2.60;;
50291;SDS011;36190;54.980;73.388;2023-04-25T00:21:46;8.55;;;3.38;;
50291;SDS011;36190;54.980;73.388;2023-04-25T00:24:14;8.10;;;3.05;;
50291;SDS011;36190;54.980;73.388;2023-04-25T00:26:52;9.85;;;3.40;;
50291;SDS011;36190;54.980;73.388;2023-04-25T00:29:21;10.75;;;3.60;;
50291;SDS011;36190;54.980;73.388;2023-04-25T00:31:49;11.35;;;3.67;;
50291;SDS011;36190;54.980;73.388;2023-04-25T00:34:16;12.20;;;3.67;;
50291;SDS011;36190;54.980;73.388;2023-04-25T00:36:43;9.02;;;3.58;;
50291;SDS011;36190;54.980;73.388;2023-04-25T00:39:13;15.25;;;3.92;;
50291;SDS011;36190;54.980;73.388;2023-04-25T00:41:40;12.25;;;3.20;;
50291;SDS011;36190;54.980;73.388;2023-04-25T00:46:58;7.70;;;3.00;;
50291;SDS011;36190;54.980;73.388;2023-04-25T00:49:50;7.15;;;2.72;;
50291;SDS011;36190;54.980;73.388;2023-04-25T00:52:34;12.90;;;3.30;;
50291;SDS011;36190;54.980;73.388;2023-04-25T00:55:13;10.02;;;3.00;;
50291;SDS011;36190;54.980;73.388;2023-04-25T00:57:41;10.43;;;3.00;;
50291;SDS011;36190;54.980;73.388;2023-04-25T01:00:25;10.52;;;3.28;;
50291;SDS011;36190;54.980;73.388;2023-04-25T01:02:59;9.05;;;3.60;;
50291;SDS011;36190;54.980;73.388;2023-04-25T01:05:27;16.75;;;4.88;;
50291;SDS011;36190;54.980;73.388;2023-04-25T01:08:10;20.45;;;5.00;;
50291;SDS011;36190;54.980;73.388;2023-04-25T01:10:39;12.75;;;5.00;;
50291;SDS011;36190;54.980;73.388;2023-04-25T01:13:08;17.27;;;5.65;;
50291;SDS011;36190;54.980;73.388;2023-04-25T01:18:20;19.70;;;7.50;;
50291;SDS011;36190;54.980;73.388;2023-04-25T01:21:24;18.83;;;5.20;;
50291;SDS011;36190;54.980;73.388;2023-04-25T01:24:14;18.02;;;5.38;;
50291;SDS011;36190;54.980;73.388;2023-04-25T01:26:43;13.80;;;4.95;;
50291;SDS011;36190;54.980;73.388;2023-04-25T01:32:14;12.57;;;5.00;;
50291;SDS011;36190;54.980;73.388;2023-04-25T01:34:42;16.88;;;5.40;;
50291;SDS011;36190;54.980;73.388;2023-04-25T01:37:15;13.90;;;4.80;;
50291;SDS011;36190;54.980;73.388;2023-04-25T01:39:43;12.77;;;5.00;;
50291;SDS011;36190;54.980;73.388;2023-04-25T01:42:14;12.85;;;4.45;;
50291;SDS011;36190;54.980;73.388;2023-04-25T01:44:43;12.75;;;4.35;;
50291;SDS011;36190;54.980;73.388;2023-04-25T01:47:13;10.70;;;4.10;;
50291;SDS011;36190;54.980;73.388;2023-04-25T01:49:44;13.35;;;4.72;;
50291;SDS011;36190;54.980;73.388;2023-04-25T01:52:16;14.88;;;4.43;;
50291;SDS011;36190;54.980;73.388;2023-04-25T01:54:44;12.65;;;4.75;;
50291;SDS011;36190;54.980;73.388;2023-04-25T01:57:13;10.73;;;4.70;;
50291;SDS011;36190;54.980;73.388;2023-04-25T01:59:48;14.02;;;4.53;;
50291;SDS011;36190;54.980;73.388;2023-04-25T02:02:16;15.23;;;4.82;;
50291;SDS011;36190;54.980;73.388;2023-04-25T02:04:44;10.32;;;4.15;;
50291;SDS011;36190;54.980;73.388;2023-04-25T02:07:14;10.10;;;4.07;;
50291;SDS011;36190;54.980;73.388;2023-04-25T02:09:43;16.27;;;4.40;;
50291;SDS011;36190;54.980;73.388;2023-04-25T02:12:13;10.25;;;4.43;;
50291;SDS011;36190;54.980;73.388;2023-04-25T02:14:41;10.88;;;4.50;;
50291;SDS011;36190;54.980;73.388;2023-04-25T02:17:14;9.85;;;3.78;;
50291;SDS011;36190;54.980;73.388;2023-04-25T02:19:43;11.30;;;4.20;;
50291;SDS011;36190;54.980;73.388;2023-04-25T02:22:13;12.18;;;4.07;;
50291;SDS011;36190;54.980;73.388;2023-04-25T02:24:42;17.60;;;7.20;;
50291;SDS011;36190;54.980;73.388;2023-04-25T02:27:18;15.65;;;6.38;;
50291;SDS011;36190;54.980;73.388;2023-04-25T02:29:46;18.20;;;5.43;;
50291;SDS011;36190;54.980;73.388;2023-04-25T02:32:28;23.15;;;5.68;;
50291;SDS011;36190;54.980;73.388;2023-04-25T02:35:08;12.15;;;4.22;;
50291;SDS011;36190;54.980;73.388;2023-04-25T02:37:43;12.90;;;4.25;;
50291;SDS011;36190;54.980;73.388;2023-04-25T02:40:12;18.10;;;5.80;;
50291;SDS011;36190;54.980;73.388;2023-04-25T02:42:40;13.20;;;4.18;;
50291;SDS011;36190;54.980;73.388;2023-04-25T02:45:08;8.68;;;3.35;;
50291;SDS011;36190;54.980;73.388;2023-04-25T02:47:36;10.32;;;3.38;;
50291;SDS011;36190;54.980;73.388;2023-04-25T02:50:03;9.80;;;3.30;;
50291;SDS011;36190;54.980;73.388;2023-04-25T02:52:32;9.13;;;2.95;;
50291;SDS011;36190;54.980;73.388;2023-04-25T02:54:59;8.88;;;2.97;;
50291;SDS011;36190;54.980;73.388;2023-04-25T02:57:28;11.73;;;3.05;;
50291;SDS011;36190;54.980;73.388;2023-04-25T02:59:55;10.15;;;2.90;;
50291;SDS011;36190;54.980;73.388;2023-04-25T03:02:23;12.88;;;3.63;;
50291;SDS011;36190;54.980;73.388;2023-04-25T03:04:50;8.00;;;3.15;;
50291;SDS011;36190;54.980;73.388;2023-04-25T03:07:19;10.70;;;3.30;;
50291;SDS011;36190;54.980;73.388;2023-04-25T03:09:46;10.50;;;3.10;;
50291;SDS011;36190;54.980;73.388;2023-04-25T03:12:14;8.13;;;3.03;;
50291;SDS011;36190;54.980;73.388;2023-04-25T03:14:42;17.75;;;4.03;;
50291;SDS011;36190;54.980;73.388;2023-04-25T03:17:14;16.90;;;3.58;;
50291;SDS011;36190;54.980;73.388;2023-04-25T03:19:42;6.75;;;2.90;;
50291;SDS011;36190;54.980;73.388;2023-04-25T03:25:34;5.82;;;2.72;;
50291;SDS011;36190;54.980;73.388;2023-04-25T03:28:01;7.72;;;2.80;;
50291;SDS011;36190;54.980;73.388;2023-04-25T03:33:40;10.93;;;3.65;;
50291;SDS011;36190;54.980;73.388;2023-04-25T03:36:30;14.18;;;4.10;;
50291;SDS011;36190;54.980;73.388;2023-04-25T03:38:57;14.80;;;3.60;;
50291;SDS011;36190;54.980;73.388;2023-04-25T03:41:25;11.60;;;3.53;;
50291;SDS011;36190;54.980;73.388;2023-04-25T03:43:53;11.40;;;3.72;;
50291;SDS011;36190;54.980;73.388;2023-04-25T03:46:22;8.82;;;3.20;;
50291;SDS011;36190;54.980;73.388;2023-04-25T03:48:49;13.57;;;3.80;;
50291;SDS011;36190;54.980;73.388;2023-04-25T03:51:17;10.38;;;3.08;;
50291;SDS011;36190;54.980;73.388;2023-04-25T03:53:44;10.35;;;3.85;;
50291;SDS011;36190;54.980;73.388;2023-04-25T03:56:12;18.25;;;6.97;;
50291;SDS011;36190;54.980;73.388;2023-04-25T03:58:39;19.52;;;7.70;;
50291;SDS011;36190;54.980;73.388;2023-04-25T04:01:06;19.90;;;7.32;;
50291;SDS011;36190;54.980;73.388;2023-04-25T04:03:35;13.00;;;3.58;;
50291;SDS011;36190;54.980;73.388;2023-04-25T04:06:03;9.80;;;3.05;;
50291;SDS011;36190;54.980;73.388;2023-04-25T04:08:32;8.73;;;3.00;;
50291;SDS011;36190;54.980;73.388;2023-04-25T04:10:59;9.75;;;3.00;;
50291;SDS011;36190;54.980;73.388;2023-04-25T04:13:27;10.15;;;2.88;;
50291;SDS011;36190;54.980;73.388;2023-04-25T04:15:55;6.88;;;2.70;;
50291;SDS011;36190;54.980;73.388;2023-04-25T04:18:23;11.27;;;3.15;;
50291;SDS011;36190;54.980;73.388;2023-04-25T04:20:52;9.38;;;3.05;;
50291;SDS011;36190;54.980;73.388;2023-04-25T04:23:20;11.27;;;3.00;;
50291;SDS011;36190;54.980;73.388;2023-04-25T04:25:48;10.75;;;3.30;;
50291;SDS011;36190;54.980;73.388;2023-04-25T04:28:15;12.10;;;3.10;;
50291;SDS011;36190;54.980;73.388;2023-04-25T04:30:43;12.45;;;3.70;;
50291;SDS011;36190;54.980;73.388;2023-04-25T04:33:12;11.15;;;3.03;;
50291;SDS011;36190;54.980;73.388;2023-04-25T04:35:40;10.30;;;3.75;;
50291;SDS011;36190;54.980;73.388;2023-04-25T04:38:09;6.97;;;2.80;;
50291;SDS011;36190;54.980;73.388;2023-04-25T04:40:37;9.95;;;3.20;;
50291;SDS011;36190;54.980;73.388;2023-04-25T04:43:05;14.45;;;4.03;;
50291;SDS011;36190;54.980;73.388;2023-04-25T04:45:34;15.43;;;3.95;;
50291;SDS011;36190;54.980;73.388;2023-04-25T04:48:01;11.25;;;4.22;;
50291;SDS011;36190;54.980;73.388;2023-04-25T04:50:30;21.63;;;4.40;;
50291;SDS011;36190;54.980;73.388;2023-04-25T04:52:59;7.18;;;3.10;;
50291;SDS011;36190;54.980;73.388;2023-04-25T04:55:28;10.10;;;3.30;;
50291;SDS011;36190;54.980;73.388;2023-04-25T04:57:55;18.42;;;6.05;;
50291;SDS011;36190;54.980;73.388;2023-04-25T05:00:23;12.40;;;4.68;;
50291;SDS011;36190;54.980;73.388;2023-04-25T05:02:50;22.48;;;4.65;;
50291;SDS011;36190;54.980;73.388;2023-04-25T05:05:18;7.28;;;2.75;;
50291;SDS011;36190;54.980;73.388;2023-04-25T05:07:45;9.50;;;3.03;;
50291;SDS011;36190;54.980;73.388;2023-04-25T05:10:13;8.48;;;2.95;;
50291;SDS011;36190;54.980;73.388;2023-04-25T05:12:42;10.50;;;3.22;;
50291;SDS011;36190;54.980;73.388;2023-04-25T05:15:09;10.40;;;2.92;;
50291;SDS011;36190;54.980;73.388;2023-04-25T05:17:37;9.40;;;3.28;;
50291;SDS011;36190;54.980;73.388;2023-04-25T05:20:05;8.20;;;2.88;;
50291;SDS011;36190;54.980;73.388;2023-04-25T05:22:34;12.43;;;3.00;;
50291;SDS011;36190;54.980;73.388;2023-04-25T05:25:02;7.30;;;2.70;;
50291;SDS011;36190;54.980;73.388;2023-04-25T05:27:30;10.85;;;3.40;;
50291;SDS011;36190;54.980;73.388;2023-04-25T05:29:59;8.95;;;2.92;;
50291;SDS011;36190;54.980;73.388;2023-04-25T05:32:27;9.80;;;2.60;;
50291;SDS011;36190;54.980;73.388;2023-04-25T05:34:55;10.20;;;2.55;;
50291;SDS011;36190;54.980;73.388;2023-04-25T05:37:22;10.80;;;2.92;;
50291;SDS011;36190;54.980;73.388;2023-04-25T05:39:49;10.02;;;2.70;;
50291;SDS011;36190;54.980;73.388;2023-04-25T05:42:17;13.85;;;3.00;;
50291;SDS011;36190;54.980;73.388;2023-04-25T05:44:44;9.02;;;2.72;;
50291;SDS011;36190;54.980;73.388;2023-04-25T05:47:13;14.95;;;3.00;;
50291;SDS011;36190;54.980;73.388;2023-04-25T05:49:40;18.20;;;3.72;;
50291;SDS011;36190;54.980;73.388;2023-04-25T05:52:08;11.30;;;3.20;;
50291;SDS011;36190;54.980;73.388;2023-04-25T05:54:35;8.35;;;2.72;;
50291;SDS011;36190;54.980;73.388;2023-04-25T05:57:03;8.52;;;3.00;;
50291;SDS011;36190;54.980;73.388;2023-04-25T05:59:30;8.75;;;2.45;;
50291;SDS011;36190;54.980;73.388;2023-04-25T06:01:58;10.50;;;2.40;;
50291;SDS011;36190;54.980;73.388;2023-04-25T06:04:27;9.73;;;2.95;;
50291;SDS011;36190;54.980;73.388;2023-04-25T06:06:54;11.20;;;2.83;;
50291;SDS011;36190;54.980;73.388;2023-04-25T06:09:22;11.13;;;2.85;;
50291;SDS011;36190;54.980;73.388;2023-04-25T06:11:49;7.68;;;2.78;;
50291;SDS011;36190;54.980;73.388;2023-04-25T06:14:17;10.05;;;3.00;;
50291;SDS011;36190;54.980;73.388;2023-04-25T06:16:44;6.93;;;2.80;;
50291;SDS011;36190;54.980;73.388;2023-04-25T06:19:12;8.45;;;2.50;;
50291;SDS011;36190;54.980;73.388;2023-04-25T06:21:41;9.02;;;2.60;;
50291;SDS011;36190;54.980;73.388;2023-04-25T06:24:09;5.00;;;2.22;;
50291;SDS011;36190;54.980;73.388;2023-04-25T06:26:37;9.20;;;2.60;;
50291;SDS011;36190;54.980;73.388;2023-04-25T06:29:04;7.65;;;2.83;;
50291;SDS011;36190;54.980;73.388;2023-04-25T06:31:32;7.40;;;2.75;;
50291;SDS011;36190;54.980;73.388;2023-04-25T06:33:59;7.47;;;2.80;;
50291;SDS011;36190;54.980;73.388;2023-04-25T06:36:27;6.55;;;2.70;;
50291;SDS011;36190;54.980;73.388;2023-04-25T06:38:57;8.88;;;2.60;;
50291;SDS011;36190;54.980;73.388;2023-04-25T06:41:24;5.38;;;2.45;;
50291;SDS011;36190;54.980;73.388;2023-04-25T06:43:52;9.05;;;2.47;;
50291;SDS011;36190;54.980;73.388;2023-04-25T06:46:19;6.57;;;2.17;;
50291;SDS011;36190;54.980;73.388;2023-04-25T06:48:47;6.82;;;2.58;;
50291;SDS011;36190;54.980;73.388;2023-04-25T06:51:14;8.75;;;2.40;;
50291;SDS011;36190;54.980;73.388;2023-04-25T06:53:41;9.40;;;2.60;;
50291;SDS011;36190;54.980;73.388;2023-04-25T06:56:10;6.65;;;2.72;;
50291;SDS011;36190;54.980;73.388;2023-04-25T06:58:38;5.30;;;2.42;;
50291;SDS011;36190;54.980;73.388;2023-04-25T07:01:05;7.22;;;2.40;;
50291;SDS011;36190;54.980;73.388;2023-04-25T07:03:33;5.38;;;2.40;;
50291;SDS011;36190;54.980;73.388;2023-04-25T07:06:02;5.20;;;2.10;;
50291;SDS011;36190;54.980;73.388;2023-04-25T07:08:30;5.55;;;2.40;;
50291;SDS011;36190;54.980;73.388;2023-04-25T07:10:57;7.32;;;2.53;;
50291;SDS011;36190;54.980;73.388;2023-04-25T07:13:26;10.52;;;3.10;;
50291;SDS011;36190;54.980;73.388;2023-04-25T07:15:54;9.30;;;2.90;;
50291;SDS011;36190;54.980;73.388;2023-04-25T07:18:22;8.82;;;2.80;;
50291;SDS011;36190;54.980;73.388;2023-04-25T07:20:49;9.50;;;2.83;;
50291;SDS011;36190;54.980;73.388;2023-04-25T07:23:17;7.28;;;2.70;;
50291;SDS011;36190;54.980;73.388;2023-04-25T07:25:44;9.48;;;3.20;;
50291;SDS011;36190;54.980;73.388;2023-04-25T07:28:11;7.47;;;2.85;;
50291;SDS011;36190;54.980;73.388;2023-04-25T07:30:40;14.88;;;3.30;;
50291;SDS011;36190;54.980;73.388;2023-04-25T07:33:08;8.95;;;2.80;;
50291;SDS011;36190;54.980;73.388;2023-04-25T07:35:36;11.98;;;3.05;;
50291;SDS011;36190;54.980;73.388;2023-04-25T07:38:03;8.75;;;2.80;;
50291;SDS011;36190;54.980;73.388;2023-04-25T07:40:31;8.15;;;2.90;;
50291;SDS011;36190;54.980;73.388;2023-04-25T07:42:59;7.13;;;2.70;;
50291;SDS011;36190;54.980;73.388;2023-04-25T07:45:27;6.75;;;2.53;;
50291;SDS011;36190;54.980;73.388;2023-04-25T07:47:55;6.60;;;2.42;;
50291;SDS011;36190;54.980;73.388;2023-04-25T07:50:23;5.80;;;2.65;;
50291;SDS011;36190;54.980;73.388;2023-04-25T07:52:51;6.55;;;2.50;;
50291;SDS011;36190;54.980;73.388;2023-04-25T07:55:18;9.63;;;2.80;;
50291;SDS011;36190;54.980;73.388;2023-04-25T07:57:45;10.80;;;3.03;;
50291;SDS011;36190;54.980;73.388;2023-04-25T08:00:13;9.68;;;2.90;;
50291;SDS011;36190;54.980;73.388;2023-04-25T08:02:41;6.60;;;2.40;;
50291;SDS011;36190;54.980;73.388;2023-04-25T08:05:10;7.60;;;2.40;;
50291;SDS011;36190;54.980;73.388;2023-04-25T08:07:39;4.82;;;2.30;;
50291;SDS011;36190;54.980;73.388;2023-04-25T08:10:07;7.03;;;2.50;;
50291;SDS011;36190;54.980;73.388;2023-04-25T08:12:35;10.02;;;2.63;;
50291;SDS011;36190;54.980;73.388;2023-04-25T08:15:03;8.02;;;2.83;;
50291;SDS011;36190;54.980;73.388;2023-04-25T08:17:32;6.75;;;2.50;;
50291;SDS011;36190;54.980;73.388;2023-04-25T08:20:00;6.68;;;2.65;;
50291;SDS011;36190;54.980;73.388;2023-04-25T08:22:32;5.85;;;2.20;;
50291;SDS011;36190;54.980;73.388;2023-04-25T08:24:59;9.35;;;2.90;;
50291;SDS011;36190;54.980;73.388;2023-04-25T08:27:27;5.10;;;2.53;;
50291;SDS011;36190;54.980;73.388;2023-04-25T08:29:54;9.45;;;3.08;;
50291;SDS011;36190;54.980;73.388;2023-04-25T08:32:23;9.82;;;2.90;;
50291;SDS011;36190;54.980;73.388;2023-04-25T08:34:50;5.75;;;2.47;;
50291;SDS011;36190;54.980;73.388;2023-04-25T08:37:19;8.80;;;2.60;;
50291;SDS011;36190;54.980;73.388;2023-04-25T08:39:48;11.05;;;2.88;;
50291;SDS011;36190;54.980;73.388;2023-04-25T08:42:17;5.10;;;2.42;;
50291;SDS011;36190;54.980;73.388;2023-04-25T08:44:45;5.75;;;2.40;;
50291;SDS011;36190;54.980;73.388;2023-04-25T08:47:14;6.55;;;2.58;;
50291;SDS011;36190;54.980;73.388;2023-04-25T08:49:42;7.53;;;2.75;;
50291;SDS011;36190;54.980;73.388;2023-04-25T08:52:11;11.40;;;3.00;;
50291;SDS011;36190;54.980;73.388;2023-04-25T08:54:41;13.52;;;3.58;;
50291;SDS011;36190;54.980;73.388;2023-04-25T08:57:12;8.15;;;2.50;;
50291;SDS011;36190;54.980;73.388;2023-04-25T08:59:41;8.50;;;2.90;;
50291;SDS011;36190;54.980;73.388;2023-04-25T09:02:11;9.82;;;2.80;;
50291;SDS011;36190;54.980;73.388;2023-04-25T09:04:41;9.52;;;3.03;;
50291;SDS011;36190;54.980;73.388;2023-04-25T09:07:09;11.07;;;2.88;;
50291;SDS011;36190;54.980;73.388;2023-04-25T09:09:37;7.28;;;2.70;;
50291;SDS011;36190;54.980;73.388;2023-04-25T09:12:05;9.27;;;3.10;;
50291;SDS011;36190;54.980;73.388;2023-04-25T09:14:34;11.43;;;3.63;;
50291;SDS011;36190;54.980;73.388;2023-04-25T09:17:02;11.45;;;3.65;;
50291;SDS011;36190;54.980;73.388;2023-04-25T09:19:33;15.88;;;4.10;;
50291;SDS011;36190;54.980;73.388;2023-04-25T09:22:03;9.25;;;3.40;;
50291;SDS011;36190;54.980;73.388;2023-04-25T09:24:31;8.50;;;2.90;;
50291;SDS011;36190;54.980;73.388;2023-04-25T09:27:02;12.82;;;3.75;;
50291;SDS011;36190;54.980;73.388;2023-04-25T09:29:31;9.93;;;4.07;;
50291;SDS011;36190;54.980;73.388;2023-04-25T09:34:53;11.18;;;5.35;;
50291;SDS011;36190;54.980;73.388;2023-04-25T09:37:22;10.27;;;4.78;;
50291;SDS011;36190;54.980;73.388;2023-04-25T09:39:52;9.93;;;4.47;;
50291;SDS011;36190;54.980;73.388;2023-04-25T09:42:21;11.07;;;4.68;;
50291;SDS011;36190;54.980;73.388;2023-04-25T09:44:52;10.05;;;4.75;;
50291;SDS011;36190;54.980;73.388;2023-04-25T09:47:22;14.38;;;3.70;;
50291;SDS011;36190;54.980;73.388;2023-04-25T09:49:50;9.20;;;3.72;;
50291;SDS011;36190;54.980;73.388;2023-04-25T09:52:19;7.95;;;3.80;;
50291;SDS011;36190;54.980;73.388;2023-04-25T09:54:47;9.60;;;4.85;;
50291;SDS011;36190;54.980;73.388;2023-04-25T09:57:16;8.98;;;4.50;;
50291;SDS011;36190;54.980;73.388;2023-04-25T09:59:45;9.57;;;3.95;;
50291;SDS011;36190;54.980;73.388;2023-04-25T10:02:15;8.57;;;3.58;;
50291;SDS011;36190;54.980;73.388;2023-04-25T10:04:47;8.40;;;3.90;;
50291;SDS011;36190;54.980;73.388;2023-04-25T10:07:16;8.13;;;3.30;;
50291;SDS011;36190;54.980;73.388;2023-04-25T10:09:47;8.07;;;3.50;;
50291;SDS011;36190;54.980;73.388;2023-04-25T10:12:16;7.53;;;3.97;;
50291;SDS011;36190;54.980;73.388;2023-04-25T10:14:44;9.02;;;3.90;;
50291;SDS011;36190;54.980;73.388;2023-04-25T10:17:15;10.95;;;4.13;;
50291;SDS011;36190;54.980;73.388;2023-04-25T10:19:43;8.82;;;3.67;;
50291;SDS011;36190;54.980;73.388;2023-04-25T10:22:11;6.85;;;3.30;;
50291;SDS011;36190;54.980;73.388;2023-04-25T10:24:43;6.68;;;3.17;;
50291;SDS011;36190;54.980;73.388;2023-04-25T10:27:12;11.45;;;4.00;;
50291;SDS011;36190;54.980;73.388;2023-04-25T10:29:41;7.60;;;3.67;;
50291;SDS011;36190;54.980;73.388;2023-04-25T10:32:10;11.77;;;3.90;;
50291;SDS011;36190;54.980;73.388;2023-04-25T10:34:40;7.80;;;3.35;;
50291;SDS011;36190;54.980;73.388;2023-04-25T10:37:16;6.22;;;2.63;;
50291;SDS011;36190;54.980;73.388;2023-04-25T10:39:46;11.93;;;2.90;;
50291;SDS011;36190;54.980;73.388;2023-04-25T10:42:14;4.03;;;2.20;;
50291;SDS011;36190;54.980;73.388;2023-04-25T10:44:41;6.68;;;2.60;;
50291;SDS011;36190;54.980;73.388;2023-04-25T10:47:34;6.18;;;2.70;;
50291;SDS011;36190;54.980;73.388;2023-04-25T10:50:06;6.55;;;2.50;;
50291;SDS011;36190;54.980;73.388;2023-04-25T10:52:35;7.93;;;2.55;;
50291;SDS011;36190;54.980;73.388;2023-04-25T10:55:06;3.75;;;2.45;;
50291;SDS011;36190;54.980;73.388;2023-04-25T10:57:38;5.07;;;2.40;;
50291;SDS011;36190;54.980;73.388;2023-04-25T11:00:13;11.20;;;2.80;;
50291;SDS011;36190;54.980;73.388;2023-04-25T11:02:42;8.75;;;2.90;;
50291;SDS011;36190;54.980;73.388;2023-04-25T11:05:18;8.25;;;2.70;;
50291;SDS011;36190;54.980;73.388;2023-04-25T11:07:51;7.05;;;2.67;;
50291;SDS011;36190;54.980;73.388;2023-04-25T11:12:52;6.32;;;2.60;;
50291;SDS011;36190;54.980;73.388;2023-04-25T11:15:20;9.00;;;2.58;;
50291;SDS011;36190;54.980;73.388;2023-04-25T11:17:48;6.32;;;2.50;;
50291;SDS011;36190;54.980;73.388;2023-04-25T11:20:19;6.80;;;2.58;;
50291;SDS011;36190;54.980;73.388;2023-04-25T11:22:47;10.50;;;2.65;;
50291;SDS011;36190;54.980;73.388;2023-04-25T11:25:15;5.57;;;2.50;;
50291;SDS011;36190;54.980;73.388;2023-04-25T11:27:49;5.95;;;2.75;;
50291;SDS011;36190;54.980;73.388;2023-04-25T11:30:18;9.18;;;2.70;;
50291;SDS011;36190;54.980;73.388;2023-04-25T11:32:46;6.72;;;2.60;;
50291;SDS011;36190;54.980;73.388;2023-04-25T11:35:15;9.82;;;2.60;;
50291;SDS011;36190;54.980;73.388;2023-04-25T11:37:44;10.80;;;2.63;;
50291;SDS011;36190;54.980;73.388;2023-04-25T11:40:12;8.43;;;2.40;;
50291;SDS011;36190;54.980;73.388;2023-04-25T11:42:46;6.57;;;2.60;;
50291;SDS011;36190;54.980;73.388;2023-04-25T11:45:14;6.28;;;2.47;;
50291;SDS011;36190;54.980;73.388;2023-04-25T11:47:42;8.82;;;2.45;;
50291;SDS011;36190;54.980;73.388;2023-04-25T11:50:09;7.38;;;2.60;;
50291;SDS011;36190;54.980;73.388;2023-04-25T11:52:37;6.53;;;2.72;;
50291;SDS011;36190;54.980;73.388;2023-04-25T11:55:08;8.38;;;3.15;;
50291;SDS011;36190;54.980;73.388;2023-04-25T11:57:37;8.25;;;3.33;;
50291;SDS011;36190;54.980;73.388;2023-04-25T12:00:07;12.32;;;3.70;;
50291;SDS011;36190;54.980;73.388;2023-04-25T12:02:40;12.80;;;3.95;;
50291;SDS011;36190;54.980;73.388;2023-04-25T12:05:08;9.20;;;3.75;;
50291;SDS011;36190;54.980;73.388;2023-04-25T12:07:36;10.93;;;3.80;;
50291;SDS011;36190;54.980;73.388;2023-04-25T12:10:04;8.45;;;3.40;;
50291;SDS011;36190;54.980;73.388;2023-04-25T12:12:35;13.43;;;3.97;;
50291;SDS011;36190;54.980;73.388;2023-04-25T12:15:10;7.97;;;3.75;;
50291;SDS011;36190;54.980;73.388;2023-04-25T12:17:40;9.93;;;3.95;;
50291;SDS011;36190;54.980;73.388;2023-04-25T12:20:09;8.23;;;3.55;;
50291;SDS011;36190;54.980;73.388;2023-04-25T12:22:40;13.82;;;4.22;;
50291;SDS011;36190;54.980;73.388;2023-04-25T12:25:10;11.90;;;3.63;;
50291;SDS011;36190;54.980;73.388;2023-04-25T12:27:39;8.95;;;3.38;;
50291;SDS011;36190;54.980;73.388;2023-04-25T12:30:09;9.40;;;3.60;;
50291;SDS011;36190;54.980;73.388;2023-04-25T12:32:37;10.13;;;3.97;;
50291;SDS011;36190;54.980;73.388;2023-04-25T12:35:05;8.73;;;4.20;;
50291;SDS011;36190;54.980;73.388;2023-04-25T12:37:33;10.57;;;3.90;;
50291;SDS011;36190;54.980;73.388;2023-04-25T12:40:00;9.73;;;3.75;;
50291;SDS011;36190;54.980;73.388;2023-04-25T12:42:29;9.18;;;3.60;;
50291;SDS011;36190;54.980;73.388;2023-04-25T12:44:58;8.20;;;3.10;;
50291;SDS011;36190;54.980;73.388;2023-04-25T12:47:26;5.13;;;2.85;;
50291;SDS011;36190;54.980;73.388;2023-04-25T12:49:53;8.48;;;2.90;;
50291;SDS011;36190;54.980;73.388;2023-04-25T12:52:21;10.85;;;2.80;;
50291;SDS011;36190;54.980;73.388;2023-04-25T12:54:48;7.65;;;2.85;;
50291;SDS011;36190;54.980;73.388;2023-04-25T12:57:16;6.72;;;3.10;;
50291;SDS011;36190;54.980;73.388;2023-04-25T12:59:43;6.50;;;2.70;;
50291;SDS011;36190;54.980;73.388;2023-04-25T13:02:12;9.07;;;3.25;;
50291;SDS011;36190;54.980;73.388;2023-04-25T13:04:40;8.35;;;3.15;;
50291;SDS011;36190;54.980;73.388;2023-04-25T13:07:07;8.63;;;3.05;;
50291;SDS011;36190;54.980;73.388;2023-04-25T13:09:35;8.18;;;2.97;;
50291;SDS011;36190;54.980;73.388;2023-04-25T13:12:03;8.10;;;3.05;;
50291;SDS011;36190;54.980;73.388;2023-04-25T13:14:31;7.28;;;2.75;;
50291;SDS011;36190;54.980;73.388;2023-04-25T13:16:59;5.95;;;2.60;;
50291;SDS011;36190;54.980;73.388;2023-04-25T13:19:28;7.03;;;2.90;;
50291;SDS011;36190;54.980;73.388;2023-04-25T13:21:56;7.68;;;3.25;;
50291;SDS011;36190;54.980;73.388;2023-04-25T13:24:24;5.82;;;2.92;;
50291;SDS011;36190;54.980;73.388;2023-04-25T13:26:51;8.00;;;3.25;;
50291;SDS011;36190;54.980;73.388;2023-04-25T13:29:18;6.47;;;2.97;;
50291;SDS011;36190;54.980;73.388;2023-04-25T13:31:46;8.95;;;3.65;;
50291;SDS011;36190;54.980;73.388;2023-04-25T13:34:13;8.65;;;3.22;;
50291;SDS011;36190;54.980;73.388;2023-04-25T13:36:42;10.48;;;3.60;;
50291;SDS011;36190;54.980;73.388;2023-04-25T13:39:10;9.18;;;3.30;;
50291;SDS011;36190;54.980;73.388;2023-04-25T13:41:38;11.45;;;3.55;;
50291;SDS011;36190;54.980;73.388;2023-04-25T13:44:06;11.70;;;3.30;;
50291;SDS011;36190;54.980;73.388;2023-04-25T13:46:33;11.40;;;3.42;;
50291;SDS011;36190;54.980;73.388;2023-04-25T13:49:02;14.18;;;3.40;;
50291;SDS011;36190;54.980;73.388;2023-04-25T13:51:30;9.77;;;3.17;;
50291;SDS011;36190;54.980;73.388;2023-04-25T13:53:59;8.30;;;3.47;;
50291;SDS011;36190;54.980;73.388;2023-04-25T13:56:26;12.48;;;3.60;;
50291;SDS011;36190;54.980;73.388;2023-04-25T13:58:54;11.52;;;3.60;;
50291;SDS011;36190;54.980;73.388;2023-04-25T14:01:22;8.88;;;3.45;;
50291;SDS011;36190;54.980;73.388;2023-04-25T14:03:49;15.90;;;3.83;;
50291;SDS011;36190;54.980;73.388;2023-04-25T14:06:17;12.55;;;3.70;;
50291;SDS011;36190;54.980;73.388;2023-04-25T14:08:48;14.93;;;3.88;;
50291;SDS011;36190;54.980;73.388;2023-04-25T14:11:17;16.50;;;4.60;;
50291;SDS011;36190;54.980;73.388;2023-04-25T14:13:45;10.52;;;3.72;;
50291;SDS011;36190;54.980;73.388;2023-04-25T14:16:14;18.27;;;4.20;;
50291;SDS011;36190;54.980;73.388;2023-04-25T14:18:42;13.38;;;4.15;;
50291;SDS011;36190;54.980;73.388;2023-04-25T14:21:10;14.52;;;4.68;;
50291;SDS011;36190;54.980;73.388;2023-04-25T14:23:38;15.48;;;5.03;;
50291;SDS011;36190;54.980;73.388;2023-04-25T14:26:05;9.70;;;4.07;;
50291;SDS011;36190;54.980;73.388;2023-04-25T14:28:36;11.43;;;3.30;;
50291;SDS011;36190;54.980;73.388;2023-04-25T14:31:03;12.50;;;3.65;;
50291;SDS011;36190;54.980;73.388;2023-04-25T14:33:31;17.05;;;3.75;;
50291;SDS011;36190;54.980;73.388;2023-04-25T14:35:59;10.45;;;3.75;;
50291;SDS011;36190;54.980;73.388;2023-04-25T14:38:26;10.15;;;3.55;;
50291;SDS011;36190;54.980;73.388;2023-04-25T14:40:54;11.30;;;3.15;;
50291;SDS011;36190;54.980;73.388;2023-04-25T14:43:21;12.25;;;3.00;;
50291;SDS011;36190;54.980;73.388;2023-04-25T14:45:53;13.95;;;3.80;;
50291;SDS011;36190;54.980;73.388;2023-04-25T14:48:21;8.48;;;3.25;;
50291;SDS011;36190;54.980;73.388;2023-04-25T14:50:48;15.10;;;4.10;;
50291;SDS011;36190;54.980;73.388;2023-04-25T14:53:16;12.68;;;4.22;;
50291;SDS011;36190;54.980;73.388;2023-04-25T14:55:43;20.58;;;5.55;;
50291;SDS011;36190;54.980;73.388;2023-04-25T14:58:10;28.10;;;7.18;;
50291;SDS011;36190;54.980;73.388;2023-04-25T15:00:38;22.13;;;8.98;;